createdAt,value
2022-10-20T00:01:45.042Z,11.57
2022-10-20T00:04:12.797Z,10.70
2022-10-20T00:06:40.588Z,10.17
2022-10-20T00:09:08.368Z,9.87
2022-10-20T00:11:36.566Z,10.03
2022-10-20T00:14:06.324Z,10.60
2022-10-20T00:16:37.984Z,9.77
2022-10-20T00:19:06.632Z,10.37
2022-10-20T00:21:34.508Z,11.33
2022-10-20T00:24:03.289Z,12.50
2022-10-20T00:26:32.229Z,10.43
2022-10-20T00:29:02.211Z,10.07
2022-10-20T00:31:32.060Z,10.43
2022-10-20T00:33:59.749Z,10.27
2022-10-20T00:36:27.452Z,8.50
2022-10-20T00:38:59.571Z,8.53
2022-10-20T00:41:27.595Z,9.20
2022-10-20T00:43:57.574Z,7.70
2022-10-20T00:46:29.231Z,8.67
2022-10-20T00:49:01.777Z,9.93
2022-10-20T00:51:33.412Z,9.70
2022-10-20T00:54:06.623Z,9.17
2022-10-20T00:56:34.907Z,7.23
2022-10-20T00:59:04.736Z,7.40
2022-10-20T01:01:33.176Z,7.80
2022-10-20T01:04:02.672Z,7.17
2022-10-20T01:06:30.469Z,7.47
2022-10-20T01:08:59.577Z,7.30
2022-10-20T01:11:35.595Z,7.40
2022-10-20T01:14:20.249Z,6.90
2022-10-20T01:16:58.883Z,7.33
2022-10-20T01:19:53.580Z,6.23
2022-10-20T01:22:38.363Z,6.90
2022-10-20T01:25:19.768Z,6.83
2022-10-20T01:27:53.003Z,6.20
2022-10-20T01:30:22.965Z,7.87
2022-10-20T01:33:10.623Z,6.00
2022-10-20T01:35:48.894Z,6.73
2022-10-20T01:38:24.364Z,6.53
2022-10-20T01:40:57.751Z,7.50
2022-10-20T01:43:32.251Z,8.47
2022-10-20T01:46:02.222Z,7.37
2022-10-20T01:48:34.391Z,7.10
2022-10-20T01:51:03.955Z,6.73
2022-10-20T01:53:31.846Z,7.37
2022-10-20T01:56:01.848Z,7.63
2022-10-20T01:58:56.020Z,7.33
2022-10-20T02:01:38.667Z,7.77
2022-10-20T02:04:09.482Z,6.53
2022-10-20T02:06:46.274Z,6.83
2022-10-20T02:09:19.553Z,6.83
2022-10-20T02:11:54.161Z,6.40
2022-10-20T02:14:24.592Z,6.83
2022-10-20T02:16:56.410Z,6.60
2022-10-20T02:19:26.760Z,6.60
2022-10-20T02:21:57.329Z,6.60
2022-10-20T02:24:29.927Z,6.80
2022-10-20T02:27:01.578Z,6.70
2022-10-20T02:29:36.639Z,6.43
2022-10-20T02:32:04.491Z,6.83
2022-10-20T02:34:32.229Z,6.30
2022-10-20T02:37:00.209Z,6.30
2022-10-20T02:39:28.253Z,6.20
2022-10-20T02:41:55.949Z,6.40
2022-10-20T02:44:23.900Z,6.20
2022-10-20T02:46:53.034Z,6.30
2022-10-20T02:49:21.529Z,6.67
2022-10-20T02:51:49.640Z,5.73
2022-10-20T02:54:17.502Z,6.30
2022-10-20T02:56:45.218Z,5.83
2022-10-20T02:59:14.520Z,6.30
2022-10-20T03:01:42.862Z,5.97
2022-10-20T03:04:12.622Z,5.70
2022-10-20T03:06:40.630Z,5.97
2022-10-20T03:09:08.636Z,5.40
2022-10-20T03:11:36.310Z,6.07
2022-10-20T03:14:04.461Z,6.13
2022-10-20T03:16:32.219Z,5.50
2022-10-20T03:19:03.443Z,4.93
2022-10-20T03:21:35.938Z,5.80
2022-10-20T03:24:03.774Z,5.30
2022-10-20T03:26:31.565Z,5.93
2022-10-20T03:28:59.280Z,5.73
2022-10-20T03:31:27.367Z,5.30
2022-10-20T03:33:55.138Z,5.47
2022-10-20T03:36:22.866Z,5.23
2022-10-20T03:38:51.862Z,5.03
2022-10-20T03:41:19.551Z,5.60
2022-10-20T03:43:47.254Z,4.87
2022-10-20T03:46:14.954Z,5.00
2022-10-20T03:48:42.993Z,5.17
2022-10-20T03:51:14.300Z,4.83
2022-10-20T03:53:42.307Z,5.37
2022-10-20T03:56:16.535Z,5.10
2022-10-20T03:58:44.274Z,5.17
2022-10-20T04:01:15.714Z,5.30
2022-10-20T04:03:43.743Z,5.37
2022-10-20T04:06:12.584Z,5.10
2022-10-20T04:08:40.473Z,5.23
2022-10-20T04:11:08.780Z,5.77
2022-10-20T04:13:38.240Z,4.50
2022-10-20T04:16:06.590Z,5.50
2022-10-20T04:18:34.462Z,4.77
2022-10-20T04:21:02.175Z,4.97
2022-10-20T04:23:29.907Z,5.33
2022-10-20T04:25:57.630Z,4.80
2022-10-20T04:28:25.399Z,5.50
2022-10-20T04:30:54.456Z,5.20
2022-10-20T04:33:22.152Z,5.67
2022-10-20T04:38:18.473Z,5.00
2022-10-20T04:40:46.178Z,5.27
2022-10-20T04:43:13.931Z,5.00
2022-10-20T04:45:41.627Z,5.00
2022-10-20T04:48:11.058Z,4.87
2022-10-20T04:50:38.752Z,5.00
2022-10-20T04:53:09.815Z,4.97
2022-10-20T04:55:37.679Z,4.97
2022-10-20T04:58:05.459Z,4.60
2022-10-20T05:00:33.350Z,4.60
2022-10-20T05:03:01.346Z,4.63
2022-10-20T05:05:30.723Z,4.67
2022-10-20T05:07:58.529Z,4.77
2022-10-20T05:10:26.689Z,5.07
2022-10-20T05:12:54.762Z,4.90
2022-10-20T05:15:22.466Z,4.90
2022-10-20T05:17:50.198Z,4.90
2022-10-20T05:20:18.066Z,5.00
2022-10-20T05:22:47.142Z,4.60
2022-10-20T05:28:02.541Z,5.90
2022-10-20T05:30:30.287Z,4.70
2022-10-20T05:32:58.063Z,5.80
2022-10-20T05:35:25.846Z,5.43
2022-10-20T05:37:54.895Z,4.93
2022-10-20T05:40:22.738Z,4.90
2022-10-20T05:42:50.976Z,5.43
2022-10-20T05:45:18.720Z,5.27
2022-10-20T05:47:46.450Z,5.50
2022-10-20T05:50:14.104Z,5.37
2022-10-20T05:52:41.812Z,5.70
2022-10-20T05:55:28.270Z,5.70
2022-10-20T05:57:58.510Z,5.83
2022-10-20T06:00:31.030Z,5.87
2022-10-20T06:02:59.511Z,6.00
2022-10-20T06:05:27.610Z,5.73
2022-10-20T06:07:55.852Z,5.83
2022-10-20T06:10:24.720Z,6.20
2022-10-20T06:12:52.982Z,5.90
2022-10-20T06:15:22.559Z,6.00
2022-10-20T06:17:50.727Z,5.90
2022-10-20T06:20:19.730Z,6.10
2022-10-20T06:22:48.141Z,6.00
2022-10-20T06:25:16.647Z,6.80
2022-10-20T06:27:44.951Z,5.93
2022-10-20T06:30:13.138Z,6.10
2022-10-20T06:32:42.617Z,6.23
2022-10-20T06:35:10.600Z,6.13
2022-10-20T06:37:38.747Z,6.10
2022-10-20T06:40:07.862Z,6.10
2022-10-20T06:42:36.209Z,6.30
2022-10-20T06:45:04.965Z,5.23
2022-10-20T06:47:33.473Z,6.70
2022-10-20T06:50:03.025Z,6.70
2022-10-20T06:52:31.111Z,6.37
2022-10-20T06:54:59.178Z,6.37
2022-10-20T06:57:27.723Z,6.40
2022-10-20T06:59:56.219Z,6.43
2022-10-20T07:02:25.329Z,6.03
2022-10-20T07:08:56.349Z,5.77
2022-10-20T07:15:12.438Z,6.53
2022-10-20T07:18:08.172Z,6.60
2022-10-20T07:21:20.533Z,5.73
2022-10-20T07:27:03.579Z,5.43
2022-10-20T07:29:42.971Z,5.97
2022-10-20T07:32:14.218Z,5.13
2022-10-20T07:34:42.127Z,5.70
2022-10-20T07:37:11.344Z,6.37
2022-10-20T07:39:40.139Z,5.97
2022-10-20T07:42:24.208Z,5.80
2022-10-20T07:44:52.743Z,6.00
2022-10-20T07:47:21.628Z,5.27
2022-10-20T07:49:50.776Z,6.40
2022-10-20T07:52:22.410Z,5.93
2022-10-20T07:55:02.488Z,5.60
2022-10-20T07:57:42.564Z,5.63
2022-10-20T08:00:15.693Z,5.63
2022-10-20T08:06:20.707Z,5.53
2022-10-20T08:15:15.423Z,5.75
2022-10-20T08:17:47.993Z,6.20
2022-10-20T08:21:04.402Z,6.38
2022-10-20T08:23:49.526Z,5.97
2022-10-20T08:26:39.276Z,6.40
2022-10-20T08:29:07.151Z,6.15
2022-10-20T08:34:18.407Z,6.25
2022-10-20T08:36:46.597Z,5.65
2022-10-20T08:39:14.478Z,5.65
2022-10-20T08:42:06.877Z,5.30
2022-10-20T08:44:36.733Z,5.10
2022-10-20T08:47:15.189Z,6.38
2022-10-20T08:50:06.026Z,6.18
2022-10-20T08:52:45.190Z,6.22
2022-10-20T08:55:23.415Z,5.88
2022-10-20T08:57:51.464Z,6.30
2022-10-20T09:00:23.858Z,6.25
2022-10-20T09:03:34.975Z,6.45
2022-10-20T09:06:15.257Z,6.80
2022-10-20T09:11:50.777Z,6.15
2022-10-20T09:14:29.725Z,6.93
2022-10-20T09:17:00.652Z,6.53
2022-10-20T09:19:53.174Z,6.47
2022-10-20T09:22:58.241Z,5.90
2022-10-20T09:25:42.118Z,6.88
2022-10-20T09:29:02.181Z,6.55
2022-10-20T09:34:42.475Z,6.85
2022-10-20T09:37:24.925Z,6.65
2022-10-20T09:40:18.621Z,7.15
2022-10-20T09:43:16.551Z,7.10
2022-10-20T09:46:16.307Z,6.55
2022-10-20T09:48:49.416Z,6.90
2022-10-20T09:51:57.914Z,6.60
2022-10-20T09:54:37.428Z,7.05
2022-10-20T09:57:30.182Z,7.30
2022-10-20T10:00:01.452Z,9.20
2022-10-20T10:03:22.850Z,7.32
2022-10-20T10:06:55.116Z,7.20
2022-10-20T10:09:45.812Z,7.45
2022-10-20T10:12:43.219Z,6.60
2022-10-20T10:15:48.310Z,7.00
2022-10-20T10:18:23.972Z,7.28
2022-10-20T10:21:26.479Z,7.00
2022-10-20T10:23:56.980Z,6.60
2022-10-20T10:26:50.797Z,7.72
2022-10-20T10:29:40.989Z,6.80
2022-10-20T10:32:38.182Z,7.07
2022-10-20T10:38:23.234Z,7.65
2022-10-20T10:41:00.811Z,7.70
2022-10-20T10:43:53.730Z,7.70
2022-10-20T10:46:27.853Z,7.55
2022-10-20T10:49:17.437Z,8.02
2022-10-20T10:51:58.209Z,8.57
2022-10-20T10:55:21.225Z,8.05
2022-10-20T10:58:32.586Z,7.72
2022-10-20T11:01:38.413Z,8.40
2022-10-20T11:04:26.452Z,8.90
2022-10-20T11:07:07.599Z,8.38
2022-10-20T11:10:39.563Z,7.40
2022-10-20T11:13:49.006Z,8.23
2022-10-20T11:16:43.598Z,8.18
2022-10-20T11:19:31.421Z,7.78
2022-10-20T11:22:14.296Z,7.85
2022-10-20T11:25:00.512Z,8.05
2022-10-20T11:27:31.819Z,7.75
2022-10-20T11:30:05.719Z,8.00
2022-10-20T11:32:38.856Z,14.25
2022-10-20T11:35:15.297Z,12.18
2022-10-20T11:37:49.509Z,8.02
2022-10-20T11:40:23.997Z,7.65
2022-10-20T11:43:11.836Z,7.03
2022-10-20T11:57:40.093Z,8.57
2022-10-20T12:00:42.345Z,8.82
2022-10-20T12:03:41.556Z,8.63
2022-10-20T12:06:35.774Z,8.48
2022-10-20T12:09:43.965Z,9.13
2022-10-20T12:12:16.554Z,9.48
2022-10-20T12:14:50.891Z,9.52
2022-10-20T12:17:29.195Z,9.60
2022-10-20T12:20:30.000Z,9.38
2022-10-20T12:22:59.721Z,9.68
2022-10-20T12:25:40.514Z,9.55
2022-10-20T12:28:33.635Z,9.77
2022-10-20T12:31:04.632Z,9.15
2022-10-20T12:33:38.898Z,9.65
2022-10-20T12:36:33.411Z,9.07
2022-10-20T12:39:20.034Z,10.05
2022-10-20T12:41:58.495Z,9.73
2022-10-20T12:44:28.949Z,9.57
2022-10-20T12:47:04.288Z,9.50
2022-10-20T12:49:34.504Z,9.98
2022-10-20T12:52:03.521Z,10.68
2022-10-20T12:54:36.123Z,11.65
2022-10-20T12:57:06.857Z,10.32
2022-10-20T12:59:41.563Z,9.63
2022-10-20T13:02:48.033Z,10.13
2022-10-20T13:05:42.438Z,10.20
2022-10-20T13:08:32.460Z,10.00
2022-10-20T13:11:40.766Z,9.35
2022-10-20T13:14:36.209Z,10.30
2022-10-20T13:17:13.738Z,10.80
2022-10-20T13:19:48.670Z,10.35
2022-10-20T13:22:42.921Z,10.10
2022-10-20T13:25:30.389Z,10.57
2022-10-20T13:28:18.223Z,10.55
2022-10-20T13:31:01.778Z,10.10
2022-10-20T13:34:02.022Z,10.73
2022-10-20T13:36:49.939Z,10.93
2022-10-20T13:39:28.296Z,11.90
2022-10-20T13:42:06.173Z,11.68
2022-10-20T13:44:41.396Z,11.93
2022-10-20T13:47:28.884Z,11.65
2022-10-20T13:50:05.545Z,12.95
2022-10-20T13:52:39.765Z,11.93
2022-10-20T13:55:15.800Z,11.73
2022-10-20T13:57:55.130Z,12.45
2022-10-20T14:00:25.864Z,13.40
2022-10-20T14:03:00.292Z,12.70
2022-10-20T14:05:29.848Z,11.95
2022-10-20T14:08:04.624Z,12.32
2022-10-20T14:10:43.624Z,12.90
2022-10-20T14:13:15.590Z,12.45
2022-10-20T14:15:48.344Z,12.15
2022-10-20T14:18:25.136Z,12.10
2022-10-20T14:20:59.987Z,12.65
2022-10-20T14:23:34.240Z,13.75
2022-10-20T14:26:03.821Z,13.00
2022-10-20T14:28:34.316Z,13.15
2022-10-20T14:31:03.078Z,13.23
2022-10-20T14:33:31.464Z,13.70
2022-10-20T14:36:02.578Z,13.15
2022-10-20T14:38:37.762Z,13.15
2022-10-20T14:41:07.559Z,12.95
2022-10-20T14:43:39.708Z,14.00
2022-10-20T14:46:10.096Z,13.40
2022-10-20T14:48:42.205Z,13.48
2022-10-20T14:51:34.163Z,13.20
2022-10-20T14:57:32.690Z,13.98
2022-10-20T15:00:03.554Z,14.50
2022-10-20T15:02:35.232Z,14.98
2022-10-20T15:05:21.915Z,14.30
2022-10-20T15:07:49.659Z,15.07
2022-10-20T15:10:22.442Z,16.08
2022-10-20T15:12:53.058Z,15.57
2022-10-20T15:15:23.807Z,16.27
2022-10-20T15:17:53.937Z,16.35
2022-10-20T15:20:37.393Z,16.25
2022-10-20T15:23:08.652Z,15.45
2022-10-20T15:25:43.477Z,14.75
2022-10-20T15:28:35.215Z,16.45
2022-10-20T15:31:05.780Z,15.45
2022-10-20T15:33:33.618Z,15.32
2022-10-20T15:36:01.841Z,16.10
2022-10-20T15:38:29.753Z,15.32
2022-10-20T15:43:33.989Z,16.70
2022-10-20T15:46:01.698Z,16.88
2022-10-20T15:48:29.426Z,16.02
2022-10-20T15:50:58.967Z,16.45
2022-10-20T15:53:26.648Z,16.80
2022-10-20T15:55:54.448Z,15.60
2022-10-20T15:58:23.544Z,16.50
2022-10-20T16:00:51.343Z,16.08
2022-10-20T16:03:19.778Z,16.45
2022-10-20T16:05:47.799Z,16.48
2022-10-20T16:10:48.715Z,16.35
2022-10-20T16:13:18.347Z,17.20
2022-10-20T16:15:47.464Z,15.65
2022-10-20T16:18:15.360Z,18.25
2022-10-20T16:20:43.108Z,24.55
2022-10-20T16:23:10.830Z,18.63
2022-10-20T16:25:40.242Z,18.65
2022-10-20T16:28:08.135Z,17.40
2022-10-20T16:30:35.838Z,18.58
2022-10-20T16:33:05.010Z,17.63
2022-10-20T16:35:32.973Z,17.50
2022-10-20T16:38:01.036Z,18.50
2022-10-20T16:40:28.921Z,17.50
2022-10-20T16:42:56.594Z,17.63
2022-10-20T16:45:24.321Z,17.88
2022-10-20T16:47:52.015Z,17.02
2022-10-20T16:50:21.475Z,16.95
2022-10-20T16:52:49.273Z,17.05
2022-10-20T16:55:17.316Z,16.88
2022-10-20T16:57:45.166Z,17.67
2022-10-20T17:00:14.160Z,18.08
2022-10-20T17:02:44.159Z,17.20
2022-10-20T17:05:11.963Z,16.38
2022-10-20T17:07:41.076Z,17.67
2022-10-20T17:10:09.447Z,16.08
2022-10-20T17:12:37.307Z,15.77
2022-10-20T17:15:05.854Z,17.00
2022-10-20T17:17:33.577Z,16.60
2022-10-20T17:20:01.287Z,18.25
2022-10-20T17:22:28.994Z,18.25
2022-10-20T17:24:58.003Z,17.60
2022-10-20T17:27:25.718Z,18.08
2022-10-20T17:29:53.429Z,16.92
2022-10-20T17:32:21.065Z,17.50
2022-10-20T17:34:48.808Z,16.33
2022-10-20T17:37:16.479Z,16.70
2022-10-20T17:39:44.240Z,18.33
2022-10-20T17:42:13.266Z,16.20
2022-10-20T17:44:40.937Z,16.63
2022-10-20T17:47:08.598Z,17.00
2022-10-20T17:49:36.307Z,16.67
2022-10-20T17:52:04.059Z,16.70
2022-10-20T17:54:31.743Z,17.27
2022-10-20T17:56:59.427Z,19.92
2022-10-20T17:59:34.750Z,17.60
2022-10-20T18:02:11.444Z,18.02
2022-10-20T18:04:40.163Z,17.52
2022-10-20T18:07:09.466Z,18.05
2022-10-20T18:09:37.438Z,17.67
2022-10-20T18:12:05.826Z,18.73
2022-10-20T18:14:35.194Z,17.85
2022-10-20T18:17:03.513Z,17.40
2022-10-20T18:19:31.783Z,17.48
2022-10-20T18:21:59.866Z,18.80
2022-10-20T18:24:28.228Z,17.80
2022-10-20T18:26:56.142Z,17.20
2022-10-20T18:29:25.863Z,17.70
2022-10-20T18:31:56.237Z,18.55
2022-10-20T18:34:24.465Z,17.50
2022-10-20T18:36:55.355Z,17.80
2022-10-20T18:39:23.552Z,18.60
2022-10-20T18:41:52.661Z,18.85
2022-10-20T18:44:21.832Z,19.48
2022-10-20T18:46:51.252Z,19.02
2022-10-20T18:49:22.079Z,20.48
2022-10-20T18:51:50.277Z,19.70
2022-10-20T18:54:19.321Z,20.40
2022-10-20T18:56:47.550Z,21.20
2022-10-20T18:59:16.224Z,21.45
2022-10-20T19:01:45.290Z,21.10
2022-10-20T19:04:14.647Z,21.73
2022-10-20T19:06:45.400Z,21.08
2022-10-20T19:09:16.837Z,21.00
2022-10-20T19:11:45.998Z,22.50
2022-10-20T19:14:17.045Z,22.33
2022-10-20T19:16:48.763Z,21.02
2022-10-20T19:19:17.722Z,21.00
2022-10-20T19:21:47.383Z,21.58
2022-10-20T19:24:17.879Z,21.98
2022-10-20T19:26:57.158Z,20.63
2022-10-20T19:29:31.959Z,22.27
2022-10-20T19:32:04.468Z,21.38
2022-10-20T19:34:36.500Z,20.35
2022-10-20T19:37:07.343Z,20.48
2022-10-20T19:39:38.151Z,21.67
2022-10-20T19:42:08.679Z,20.27
2022-10-20T19:44:37.037Z,21.70
2022-10-20T19:47:06.068Z,22.42
2022-10-20T19:49:34.317Z,21.80
2022-10-20T19:52:02.822Z,19.85
2022-10-20T19:54:32.600Z,21.10
2022-10-20T19:57:01.007Z,20.85
2022-10-20T19:59:28.888Z,21.13
2022-10-20T20:01:56.878Z,20.75
2022-10-20T20:04:24.999Z,19.67
2022-10-20T20:06:57.228Z,19.60
2022-10-20T20:09:31.380Z,20.88
2022-10-20T20:12:01.950Z,19.17
2022-10-20T20:17:27.941Z,20.00
2022-10-20T20:19:56.219Z,19.67
2022-10-20T20:22:24.581Z,21.48
2022-10-20T20:24:52.827Z,19.58
2022-10-20T20:27:22.787Z,20.90
2022-10-20T20:29:51.387Z,20.98
2022-10-20T20:32:20.123Z,19.92
2022-10-20T20:34:57.901Z,19.73
2022-10-20T20:37:26.436Z,18.88
2022-10-20T20:39:54.627Z,18.77
2022-10-20T20:42:29.453Z,21.58
2022-10-20T20:45:00.141Z,20.13
2022-10-20T20:47:28.611Z,21.13
2022-10-20T20:50:03.912Z,20.65
2022-10-20T20:52:32.583Z,21.02
2022-10-20T20:55:00.693Z,20.30
2022-10-20T20:57:30.687Z,20.45
2022-10-20T20:59:59.361Z,21.10
2022-10-20T21:02:27.753Z,18.65
2022-10-20T21:04:56.063Z,20.95
2022-10-20T21:07:24.339Z,20.05
2022-10-20T21:09:52.538Z,21.75
2022-10-20T21:12:20.409Z,21.77
2022-10-20T21:14:49.961Z,20.42
2022-10-20T21:17:18.661Z,21.08
2022-10-20T21:19:47.659Z,20.52
2022-10-20T21:22:15.986Z,20.48
2022-10-20T21:25:10.313Z,20.55
2022-10-20T21:33:53.505Z,20.60
2022-10-20T21:36:23.489Z,20.75
2022-10-20T21:38:52.261Z,20.17
2022-10-20T21:41:21.730Z,19.83
2022-10-20T21:43:51.680Z,19.35
2022-10-20T21:46:22.629Z,19.02
2022-10-20T21:48:54.366Z,19.70
2022-10-20T21:51:24.266Z,18.73
2022-10-20T21:53:56.831Z,19.42
2022-10-20T21:56:25.452Z,18.60
2022-10-20T21:58:54.661Z,17.80
2022-10-20T22:01:26.081Z,18.67
2022-10-20T22:03:55.816Z,17.80
2022-10-20T22:06:28.467Z,17.30
2022-10-20T22:08:58.106Z,17.45
2022-10-20T22:11:27.921Z,17.27
2022-10-20T22:13:56.596Z,17.20
2022-10-20T22:16:26.783Z,16.42
2022-10-20T22:19:01.283Z,15.75
2022-10-20T22:21:30.571Z,16.75
2022-10-20T22:24:00.385Z,17.65
2022-10-20T22:26:29.077Z,16.17
2022-10-20T22:28:58.284Z,16.65
2022-10-20T22:31:27.638Z,16.48
2022-10-20T22:33:57.872Z,16.77
2022-10-20T22:36:29.038Z,16.27
2022-10-20T22:38:57.606Z,16.42
2022-10-20T22:41:26.066Z,17.20
2022-10-20T22:43:54.312Z,16.67
2022-10-20T22:46:22.344Z,15.98
2022-10-20T22:48:50.545Z,15.07
2022-10-20T22:51:19.001Z,15.48
2022-10-20T22:53:48.645Z,16.15
2022-10-20T22:56:20.267Z,15.60
2022-10-20T22:58:49.098Z,15.50
2022-10-20T23:01:20.235Z,16.17
2022-10-20T23:03:48.863Z,14.88
2022-10-20T23:06:19.238Z,14.00
2022-10-20T23:08:51.494Z,14.43
2022-10-20T23:11:21.370Z,14.85
2022-10-20T23:13:50.939Z,14.27
2022-10-20T23:16:20.000Z,15.30
2022-10-20T23:18:48.565Z,14.40
2022-10-20T23:21:16.965Z,15.27
2022-10-20T23:23:46.530Z,16.00
2022-10-20T23:26:15.973Z,14.98
2022-10-20T23:28:44.156Z,15.68
2022-10-20T23:31:14.492Z,15.80
2022-10-20T23:33:45.022Z,14.73
2022-10-20T23:36:14.461Z,15.27
2022-10-20T23:38:42.858Z,14.32
2022-10-20T23:41:11.656Z,14.52
2022-10-20T23:43:41.498Z,14.05
2022-10-20T23:46:12.082Z,13.88
2022-10-20T23:48:41.077Z,13.07
2022-10-20T23:51:09.444Z,12.35
2022-10-20T23:53:37.905Z,9.90
2022-10-20T23:56:06.618Z,8.45
2022-10-20T23:58:34.729Z,8.20
